N930LX KSAV-KORL
Flight info
| Callsign | N930LX |
|---|---|
| Flight time | N/A |
| Altitude | 30000 |
| Route | CRG |
| Aircraft | TBM9/L-SDFGRWY/S |
Departure
| Time | 2026-04-23 17:36 |
|---|---|
| Airport | Savannah Hilton Head International Airport (KSAV) |
Arrival
| Time | N/A |
|---|---|
| Airport | Orlando Executive Airport (KORL) |
| Time | Latitude | Longitude | Altitude | Speed | Heading |
|---|---|---|---|---|---|
| 2026-04-23 17:22 | 32.12191 | -81.19751 | 37 ft | 0 kts | 180° |
| 2026-04-23 17:32 | 32.12190 | -81.19751 | 37 ft | 2 kts | 181° |
| 2026-04-23 17:32 | 32.12174 | -81.19814 | 37 ft | 15 kts | 251° |
| 2026-04-23 17:32 | 32.12154 | -81.19923 | 37 ft | 0 kts | 268° |
| 2026-04-23 17:34 | 32.12190 | -81.20012 | 38 ft | 0 kts | 2° |
| 2026-04-23 17:35 | 32.12597 | -81.20003 | 38 ft | 89 kts | 1° |
| 2026-04-23 17:35 | 32.13395 | -81.19935 | 159 ft | 131 kts | 19° |
| 2026-04-23 17:36 | 32.14364 | -81.19919 | 605 ft | 146 kts | 344° |
| 2026-04-23 17:36 | 32.15134 | -81.20620 | 1353 ft | 143 kts | 298° |
| 2026-04-23 17:36 | 32.15180 | -81.21714 | 2099 ft | 135 kts | 242° |
| 2026-04-23 17:36 | 32.14444 | -81.22274 | 2815 ft | 130 kts | 180° |
| 2026-04-23 17:37 | 32.13685 | -81.21784 | 3457 ft | 130 kts | 130° |
| 2026-04-23 17:37 | 32.13006 | -81.21103 | 4076 ft | 130 kts | 166° |
| 2026-04-23 17:37 | 32.11190 | -81.20999 | 5337 ft | 132 kts | 174° |
| 2026-04-23 17:38 | 32.10276 | -81.20919 | 6012 ft | 131 kts | 173° |
| 2026-04-23 17:38 | 32.09358 | -81.20832 | 6728 ft | 134 kts | 174° |
| 2026-04-23 17:38 | 32.08430 | -81.20755 | 7392 ft | 133 kts | 173° |
| 2026-04-23 17:38 | 32.07497 | -81.20667 | 8011 ft | 134 kts | 175° |
| 2026-04-23 17:39 | 32.06562 | -81.20580 | 8679 ft | 135 kts | 175° |
| 2026-04-23 17:39 | 32.05616 | -81.20497 | 9340 ft | 138 kts | 175° |
| 2026-04-23 17:39 | 32.04664 | -81.20403 | 10042 ft | 138 kts | 175° |
| 2026-04-23 17:39 | 32.03702 | -81.20310 | 10665 ft | 140 kts | 176° |
| 2026-04-23 17:40 | 32.02727 | -81.20223 | 11316 ft | 141 kts | 176° |
| 2026-04-23 17:40 | 32.01742 | -81.20132 | 11965 ft | 143 kts | 177° |
| 2026-04-23 17:40 | 32.00740 | -81.20040 | 12610 ft | 145 kts | 177° |
| 2026-04-23 17:40 | 31.99722 | -81.19945 | 13243 ft | 148 kts | 178° |
| 2026-04-23 17:41 | 31.98689 | -81.19851 | 13861 ft | 150 kts | 178° |
| 2026-04-23 17:41 | 31.96581 | -81.19653 | 14938 ft | 154 kts | 178° |
| 2026-04-23 17:41 | 31.95505 | -81.19553 | 15485 ft | 156 kts | 178° |
| 2026-04-23 17:42 | 31.93313 | -81.19351 | 16586 ft | 160 kts | 178° |
| 2026-04-23 17:42 | 31.92191 | -81.19246 | 17176 ft | 163 kts | 178° |
| 2026-04-23 17:42 | 31.91055 | -81.19139 | 17816 ft | 165 kts | 178° |
| 2026-04-23 17:43 | 31.89898 | -81.19035 | 18455 ft | 168 kts | 177° |
| 2026-04-23 17:43 | 31.88724 | -81.18927 | 19006 ft | 170 kts | 177° |
| 2026-04-23 17:43 | 31.87534 | -81.18815 | 19574 ft | 173 kts | 176° |
| 2026-04-23 17:43 | 31.86330 | -81.18703 | 20132 ft | 175 kts | 176° |
| 2026-04-23 17:44 | 31.85093 | -81.18589 | 20715 ft | 177 kts | 177° |
| 2026-04-23 17:44 | 31.83859 | -81.18475 | 21274 ft | 179 kts | 176° |
| 2026-04-23 17:44 | 31.81770 | -81.18281 | 22243 ft | 183 kts | 176° |
| 2026-04-23 17:45 | 31.80494 | -81.18164 | 22832 ft | 185 kts | 176° |
| 2026-04-23 17:45 | 31.77890 | -81.17924 | 23960 ft | 190 kts | 176° |
| 2026-04-23 17:45 | 31.76567 | -81.17802 | 24475 ft | 192 kts | 176° |
| 2026-04-23 17:46 | 31.73895 | -81.17554 | 25540 ft | 194 kts | 176° |